createdAt,value
2019-04-28T00:00:41.430Z,99.90
2019-04-28T00:06:46.017Z,99.90
2019-04-28T00:12:51.111Z,99.90
2019-04-28T00:18:55.678Z,99.90
2019-04-28T00:25:04.655Z,99.90
2019-04-28T00:31:11.158Z,99.90
2019-04-28T00:37:17.574Z,99.90
2019-04-28T00:43:22.381Z,99.90
2019-04-28T00:49:44.737Z,99.90
2019-04-28T00:55:49.322Z,99.90
2019-04-28T01:01:55.514Z,99.90
2019-04-28T01:08:01.116Z,99.90
2019-04-28T01:14:06.256Z,99.90
2019-04-28T01:20:15.351Z,99.90
2019-04-28T01:26:20.109Z,99.90
2019-04-28T01:32:26.491Z,99.90
2019-04-28T01:38:31.103Z,99.90
2019-04-28T01:44:35.642Z,99.90
2019-04-28T01:50:40.188Z,99.90
2019-04-28T01:56:44.723Z,99.90
2019-04-28T02:02:50.521Z,99.90
2019-04-28T02:08:55.296Z,99.90
2019-04-28T02:15:01.016Z,99.90
2019-04-28T02:21:07.569Z,99.90
2019-04-28T02:27:13.873Z,99.90
2019-04-28T02:33:20.978Z,99.90
2019-04-28T02:39:24.874Z,99.90
2019-04-28T02:45:31.623Z,99.90
2019-04-28T02:51:40.750Z,99.90
2019-04-28T02:57:44.806Z,99.90
2019-04-28T03:03:50.768Z,99.90
2019-04-28T03:09:55.626Z,99.90
2019-04-28T03:16:01.536Z,99.90
2019-04-28T03:22:06.576Z,99.90
2019-04-28T03:28:25.108Z,99.90
2019-04-28T03:34:44.180Z,99.90
2019-04-28T03:40:51.295Z,99.90
2019-04-28T03:46:56.584Z,99.90
2019-04-28T03:53:01.248Z,99.90
2019-04-28T03:59:05.943Z,99.90
2019-04-28T04:05:11.204Z,99.90
2019-04-28T04:11:26.257Z,99.90
2019-04-28T04:17:41.513Z,99.90
2019-04-28T04:23:46.175Z,99.90
2019-04-28T04:29:51.024Z,99.90
2019-04-28T04:35:55.779Z,99.90
2019-04-28T04:42:00.714Z,99.90
2019-04-28T04:48:05.684Z,99.90
2019-04-28T04:54:10.859Z,99.90
2019-04-28T05:00:26.293Z,99.90
2019-04-28T05:06:41.497Z,99.90
2019-04-28T05:12:46.388Z,99.90
2019-04-28T05:18:50.935Z,99.90
2019-04-28T05:25:00.110Z,99.90
2019-04-28T05:31:04.769Z,99.90
2019-04-28T05:37:10.792Z,99.90
2019-04-28T05:43:15.580Z,99.90
2019-04-28T05:49:23.357Z,99.90
2019-04-28T05:55:30.547Z,99.90
2019-04-28T06:01:36.850Z,99.90
2019-04-28T06:07:51.609Z,99.90
2019-04-28T06:13:56.150Z,99.90
2019-04-28T06:20:00.731Z,99.90
2019-04-28T06:26:05.302Z,99.90
2019-04-28T06:32:09.944Z,99.90
2019-04-28T06:38:14.484Z,99.90
2019-04-28T06:44:19.103Z,99.90
2019-04-28T06:50:23.643Z,99.90
2019-04-28T06:56:28.241Z,99.90
2019-04-28T07:02:32.849Z,99.90
2019-04-28T07:08:37.417Z,99.90
2019-04-28T07:14:41.994Z,99.90
2019-04-28T07:20:48.200Z,99.90
2019-04-28T07:26:52.765Z,99.90
2019-04-28T07:32:57.370Z,99.90
2019-04-28T07:39:02.020Z,99.90
2019-04-28T07:45:07.982Z,99.90
2019-04-28T07:51:12.561Z,99.90
2019-04-28T07:57:17.197Z,99.90
2019-04-28T08:03:21.832Z,99.90
2019-04-28T08:09:26.453Z,99.90
2019-04-28T08:15:31.012Z,99.90
2019-04-28T08:21:35.561Z,99.90
2019-04-28T08:27:40.703Z,99.90
2019-04-28T08:33:46.898Z,99.90
2019-04-28T08:40:03.249Z,99.90
2019-04-28T08:46:07.869Z,99.90
2019-04-28T08:52:12.495Z,99.90
2019-04-28T08:58:17.053Z,99.90
2019-04-28T09:04:21.606Z,99.90
2019-04-28T09:10:26.324Z,99.90
2019-04-28T09:16:30.955Z,99.90
2019-04-28T09:22:35.578Z,99.90
2019-04-28T09:28:40.200Z,99.90
2019-04-28T09:34:44.748Z,99.90
2019-04-28T09:40:49.393Z,99.90
2019-04-28T09:46:54.022Z,99.90
2019-04-28T09:52:58.610Z,99.90
2019-04-28T09:59:03.240Z,99.90
2019-04-28T10:05:09.740Z,99.90
2019-04-28T10:11:14.513Z,99.90
2019-04-28T10:17:19.037Z,99.90
2019-04-28T10:23:23.658Z,99.90
2019-04-28T10:29:28.332Z,99.90
2019-04-28T10:35:32.973Z,99.90
2019-04-28T10:41:39.182Z,99.90
2019-04-28T10:47:43.791Z,99.90
2019-04-28T10:53:48.362Z,99.90
2019-04-28T10:59:52.916Z,99.90
2019-04-28T11:05:57.629Z,99.90
2019-04-28T11:12:02.545Z,99.90
2019-04-28T11:18:09.068Z,99.90
2019-04-28T11:24:13.620Z,99.90
2019-04-28T11:30:19.601Z,99.90
2019-04-28T11:36:24.520Z,99.90
2019-04-28T11:42:29.085Z,99.90
2019-04-28T11:48:33.710Z,99.90
2019-04-28T11:54:38.272Z,99.90
2019-04-28T12:00:42.998Z,99.90
2019-04-28T12:06:47.822Z,99.90
2019-04-28T12:12:54.843Z,99.90
2019-04-28T12:19:09.871Z,99.90
2019-04-28T12:25:14.631Z,99.90
2019-04-28T12:31:19.287Z,99.90
2019-04-28T12:37:23.858Z,99.90
2019-04-28T12:43:28.397Z,99.90
2019-04-28T12:49:34.623Z,99.90
2019-04-28T12:55:39.166Z,99.90
2019-04-28T13:01:57.339Z,99.90
2019-04-28T13:08:01.960Z,99.90
2019-04-28T13:14:06.581Z,99.90
2019-04-28T13:20:11.282Z,99.90
2019-04-28T13:26:15.841Z,99.90
2019-04-28T13:32:20.437Z,99.90
2019-04-28T13:38:25.055Z,99.90
2019-04-28T13:44:49.517Z,99.90
2019-04-28T13:50:54.063Z,99.90
2019-04-28T13:56:58.625Z,99.90
2019-04-28T14:03:08.685Z,99.90
2019-04-28T14:09:14.937Z,99.90
2019-04-28T14:15:19.504Z,99.90
2019-04-28T14:21:24.094Z,99.90
2019-04-28T14:27:28.709Z,99.90
2019-04-28T14:33:33.337Z,99.90
2019-04-28T14:39:37.880Z,99.90
2019-04-28T14:45:42.431Z,99.90
2019-04-28T14:51:47.122Z,99.90
2019-04-28T14:57:51.650Z,99.90
2019-04-28T15:03:57.866Z,99.90
2019-04-28T15:10:04.093Z,99.90
2019-04-28T15:16:08.827Z,99.90
2019-04-28T15:22:13.384Z,99.90
2019-04-28T15:28:18.011Z,99.90
2019-04-28T15:34:22.592Z,99.90
2019-04-28T15:40:27.218Z,99.90
2019-04-28T15:46:31.765Z,99.90
2019-04-28T15:52:36.322Z,99.90
2019-04-28T15:58:40.943Z,99.90
2019-04-28T16:04:45.485Z,99.90
2019-04-28T16:10:50.033Z,99.90
2019-04-28T16:16:54.589Z,99.90
2019-04-28T16:22:59.204Z,99.90
2019-04-28T16:29:04.023Z,99.90
2019-04-28T16:35:08.825Z,99.90
2019-04-28T16:41:26.604Z,99.90
2019-04-28T16:47:31.176Z,99.90
2019-04-28T16:53:37.278Z,92.40
2019-04-28T16:59:51.982Z,78.50
2019-04-28T17:05:56.772Z,76.40
2019-04-28T17:12:01.333Z,72.40
2019-04-28T17:18:06.138Z,70.70
2019-04-28T17:24:10.717Z,70.40
2019-04-28T17:30:15.487Z,71.70
2019-04-28T17:36:20.176Z,71.90
2019-04-28T17:42:24.744Z,78.40
2019-04-28T17:48:37.067Z,82.40
2019-04-28T17:54:41.631Z,86.10
2019-04-28T18:00:55.173Z,90.20
2019-04-28T18:07:06.847Z,92.10
2019-04-28T18:13:11.577Z,96.50
2019-04-28T18:19:17.764Z,99.90
2019-04-28T18:25:22.449Z,99.90
2019-04-28T18:31:26.770Z,99.90
2019-04-28T18:37:49.228Z,99.90
2019-04-28T18:44:04.426Z,99.90
2019-04-28T18:50:09.220Z,99.90
2019-04-28T18:56:13.850Z,99.90
2019-04-28T19:02:28.931Z,99.90
2019-04-28T19:08:48.498Z,99.90
2019-04-28T19:14:45.891Z,99.90
2019-04-28T19:20:50.567Z,99.90
2019-04-28T19:26:55.523Z,99.90
2019-04-28T19:33:00.128Z,99.90
2019-04-28T19:39:06.243Z,99.90
2019-04-28T19:45:12.679Z,99.90
2019-04-28T19:51:31.070Z,99.90
2019-04-28T19:57:26.820Z,99.90
2019-04-28T20:03:31.362Z,99.90
2019-04-28T20:09:35.966Z,99.90
2019-04-28T20:15:40.583Z,99.90
2019-04-28T20:21:45.162Z,99.90
2019-04-28T20:27:49.706Z,99.90
2019-04-28T20:33:54.267Z,99.90
2019-04-28T20:40:02.893Z,99.90
2019-04-28T20:46:07.796Z,99.90
2019-04-28T20:52:12.417Z,99.90
2019-04-28T20:58:16.969Z,99.90
2019-04-28T21:04:21.507Z,99.90
2019-04-28T21:10:37.265Z,99.90
2019-04-28T21:16:32.405Z,99.90
2019-04-28T21:22:37.065Z,99.90
2019-04-28T21:28:41.602Z,99.90
2019-04-28T21:34:46.147Z,99.90
2019-04-28T21:40:50.728Z,99.90
2019-04-28T21:46:56.889Z,99.90
2019-04-28T21:53:01.433Z,99.90
2019-04-28T21:59:06.042Z,99.90
2019-04-28T22:05:10.832Z,99.90
2019-04-28T22:11:15.537Z,99.90
2019-04-28T22:17:20.157Z,99.90
2019-04-28T22:23:26.418Z,99.90
2019-04-28T22:29:31.045Z,99.90
2019-04-28T22:35:35.564Z,99.90
2019-04-28T22:41:40.282Z,99.90
2019-04-28T22:47:44.894Z,99.90
2019-04-28T22:53:49.693Z,99.90
2019-04-28T22:59:55.894Z,99.90
2019-04-28T23:06:00.619Z,99.90
2019-04-28T23:12:05.345Z,99.90
2019-04-28T23:18:09.952Z,99.90
2019-04-28T23:24:14.526Z,99.90
2019-04-28T23:30:44.086Z,99.90
2019-04-28T23:36:48.695Z,99.90
2019-04-28T23:42:54.873Z,99.90
2019-04-28T23:48:59.416Z,99.90
2019-04-28T23:55:09.222Z,99.90
